createdAt,value
2023-04-20T00:00:11.645Z,2.80
2023-04-20T00:03:00.845Z,2.90
2023-04-20T00:05:50.978Z,3.00
2023-04-20T00:08:39.583Z,3.70
2023-04-20T00:11:28.696Z,4.40
2023-04-20T00:14:17.378Z,4.80
2023-04-20T00:17:06.431Z,4.20
2023-04-20T00:19:55.090Z,3.20
2023-04-20T00:22:45.191Z,1.90
2023-04-20T00:25:33.751Z,3.30
2023-04-20T00:28:22.366Z,4.00
2023-04-20T00:31:11.319Z,4.40
2023-04-20T00:33:59.922Z,4.10
2023-04-20T00:36:48.555Z,4.40
2023-04-20T00:39:38.494Z,4.10
2023-04-20T00:42:27.108Z,5.00
2023-04-20T00:45:15.838Z,5.00
2023-04-20T00:48:04.892Z,5.60
2023-04-20T00:50:54.184Z,6.40
2023-04-20T00:53:43.095Z,7.20
2023-04-20T00:56:33.453Z,7.40
2023-04-20T00:59:22.631Z,7.40
2023-04-20T01:02:11.476Z,6.80
2023-04-20T01:05:01.816Z,6.30
2023-04-20T01:07:50.822Z,6.30
2023-04-20T01:10:39.438Z,5.70
2023-04-20T01:13:29.439Z,5.50
2023-04-20T01:16:18.193Z,4.00
2023-04-20T01:19:06.875Z,3.10
2023-04-20T01:21:55.703Z,1.80
2023-04-20T01:24:45.665Z,1.00
2023-04-20T01:27:34.324Z,1.00
2023-04-20T01:30:23.017Z,1.00
2023-04-20T01:33:11.641Z,1.00
2023-04-20T01:36:00.328Z,1.00
2023-04-20T01:38:49.220Z,1.00
2023-04-20T01:41:39.368Z,1.00
2023-04-20T01:44:28.015Z,1.00
2023-04-20T01:47:16.685Z,1.00
2023-04-20T01:50:05.588Z,1.00
2023-04-20T01:52:54.184Z,1.00
2023-04-20T01:55:42.741Z,1.00
2023-04-20T01:58:32.791Z,1.00
2023-04-20T02:01:21.610Z,1.00
2023-04-20T02:04:10.396Z,1.00
2023-04-20T02:06:59.072Z,2.00
2023-04-20T02:09:47.645Z,2.90
2023-04-20T02:12:36.679Z,3.20
2023-04-20T02:15:26.939Z,1.60
2023-04-20T02:18:16.508Z,1.70
2023-04-20T02:21:05.275Z,1.90
2023-04-20T02:23:53.915Z,2.20
2023-04-20T02:26:42.484Z,2.00
2023-04-20T02:29:31.078Z,1.80
2023-04-20T02:32:21.153Z,1.80
2023-04-20T02:35:10.453Z,2.60
2023-04-20T02:37:59.124Z,2.40
2023-04-20T02:40:47.722Z,3.20
2023-04-20T02:43:36.415Z,3.90
2023-04-20T02:46:25.052Z,9.70
2023-04-20T02:49:15.304Z,17.00
2023-04-20T02:52:04.154Z,20.30
2023-04-20T02:54:52.769Z,25.60
2023-04-20T02:57:41.582Z,32.10
2023-04-20T03:00:30.165Z,35.80
2023-04-20T03:03:20.191Z,39.70
2023-04-20T03:06:10.379Z,42.70
2023-04-20T03:08:59.037Z,45.90
2023-04-20T03:11:47.676Z,47.50
2023-04-20T03:14:36.455Z,47.90
2023-04-20T03:17:25.138Z,49.70
2023-04-20T03:20:14.887Z,50.90
2023-04-20T03:23:04.983Z,53.70
2023-04-20T03:25:53.830Z,55.00
2023-04-20T03:28:43.001Z,57.30
2023-04-20T03:31:31.655Z,58.40
2023-04-20T03:34:20.229Z,59.10
2023-04-20T03:37:08.813Z,61.50
2023-04-20T03:39:58.822Z,61.90
2023-04-20T03:42:47.398Z,63.60
2023-04-20T03:45:36.262Z,65.10
2023-04-20T03:48:24.923Z,66.40
2023-04-20T03:51:13.475Z,68.00
2023-04-20T03:54:02.139Z,70.50
2023-04-20T03:56:52.116Z,71.90
2023-04-20T03:59:40.696Z,73.60
2023-04-20T04:02:29.391Z,76.10
2023-04-20T04:05:18.413Z,76.90
2023-04-20T04:08:07.214Z,79.40
2023-04-20T04:10:56.032Z,80.80
2023-04-20T04:13:46.142Z,82.20
2023-04-20T04:16:34.858Z,83.00
2023-04-20T04:19:23.576Z,82.70
2023-04-20T04:22:12.228Z,83.40
2023-04-20T04:25:00.943Z,84.00
2023-04-20T04:27:49.617Z,84.70
2023-04-20T04:30:39.521Z,85.10
2023-04-20T04:33:28.147Z,85.30
2023-04-20T04:36:17.540Z,86.60
2023-04-20T04:39:06.204Z,87.20
2023-04-20T04:41:54.969Z,87.90
2023-04-20T04:44:43.743Z,88.60
2023-04-20T04:47:37.218Z,90.40
2023-04-20T04:50:25.873Z,91.10
2023-04-20T04:53:14.508Z,92.90
2023-04-20T04:56:03.652Z,94.40
2023-04-20T04:58:52.267Z,95.40
2023-04-20T05:01:40.950Z,96.30
2023-04-20T05:04:31.134Z,96.60
2023-04-20T05:07:20.110Z,96.40
2023-04-20T05:10:09.878Z,96.90
2023-04-20T05:12:59.721Z,97.30
2023-04-20T05:15:48.352Z,97.40
2023-04-20T05:18:37.064Z,97.90
2023-04-20T05:21:27.058Z,98.40
2023-04-20T05:24:15.829Z,98.80
2023-04-20T05:27:04.461Z,99.90
2023-04-20T05:29:53.049Z,99.40
2023-04-20T05:32:41.676Z,99.50
2023-04-20T05:35:30.341Z,99.90
2023-04-20T05:38:20.334Z,99.80
2023-04-20T05:41:08.903Z,99.30
2023-04-20T05:43:58.032Z,98.50
2023-04-20T05:46:46.604Z,99.20
2023-04-20T05:49:35.275Z,99.50
2023-04-20T05:52:23.873Z,99.90
2023-04-20T05:55:14.893Z,99.90
2023-04-20T05:58:06.061Z,99.90
2023-04-20T06:00:54.840Z,99.90
2023-04-20T06:03:43.695Z,99.90
2023-04-20T06:06:32.554Z,99.90
2023-04-20T06:09:21.642Z,99.90
2023-04-20T06:12:11.621Z,99.90
2023-04-20T06:15:00.686Z,99.90
2023-04-20T06:17:49.625Z,99.90
2023-04-20T06:20:39.501Z,99.90
2023-04-20T06:23:28.154Z,99.90
2023-04-20T06:26:16.735Z,99.90
2023-04-20T06:29:06.929Z,99.90
2023-04-20T06:31:55.549Z,99.90
2023-04-20T06:34:44.180Z,99.90
2023-04-20T06:37:32.803Z,99.90
2023-04-20T06:40:21.460Z,99.90
2023-04-20T06:43:10.033Z,99.90
2023-04-20T06:46:00.010Z,99.90
2023-04-20T06:48:48.618Z,99.90
2023-04-20T06:51:37.172Z,99.90
2023-04-20T06:54:25.757Z,99.90
2023-04-20T06:57:14.287Z,99.90
2023-04-20T07:00:02.924Z,99.90
2023-04-20T07:02:53.118Z,99.90
2023-04-20T07:05:41.832Z,99.90
2023-04-20T07:08:30.489Z,99.90
2023-04-20T07:11:19.052Z,99.90
2023-04-20T07:14:07.565Z,99.90
2023-04-20T07:16:56.394Z,99.90
2023-04-20T07:32:29.724Z,99.90
2023-04-20T07:35:19.840Z,99.90
2023-04-20T07:38:08.789Z,99.90
2023-04-20T07:40:57.346Z,99.90
2023-04-20T07:43:46.413Z,99.90
2023-04-20T07:46:34.947Z,99.90
2023-04-20T07:49:23.522Z,99.90
2023-04-20T07:52:17.354Z,99.90
2023-04-20T07:55:08.300Z,99.90
2023-04-20T07:57:57.082Z,99.90
2023-04-20T08:00:47.427Z,99.90
2023-04-20T08:03:36.874Z,99.10
2023-04-20T08:06:25.751Z,98.40
2023-04-20T08:09:17.221Z,95.90
2023-04-20T08:12:06.270Z,95.20
2023-04-20T08:14:54.909Z,90.50
2023-04-20T08:17:43.562Z,91.50
2023-04-20T08:23:20.716Z,90.50
2023-04-20T08:26:11.012Z,83.10
2023-04-20T08:29:01.529Z,88.20
2023-04-20T08:31:51.360Z,90.20
2023-04-20T08:34:40.806Z,87.80
2023-04-20T08:37:32.066Z,85.30
2023-04-20T08:40:21.697Z,88.10
2023-04-20T08:43:12.196Z,86.00
2023-04-20T08:46:03.017Z,86.70
2023-04-20T08:48:55.901Z,87.30
2023-04-20T08:51:45.080Z,88.00
2023-04-20T08:54:35.307Z,87.20
2023-04-20T08:57:26.122Z,86.40
2023-04-20T09:00:17.748Z,85.90
2023-04-20T09:03:06.683Z,87.60
2023-04-20T09:05:55.388Z,85.80
2023-04-20T09:08:45.602Z,87.70
2023-04-20T09:11:34.176Z,90.30
2023-04-20T09:14:22.776Z,91.50
2023-04-20T09:17:14.760Z,93.50
2023-04-20T09:20:05.764Z,96.90
2023-04-20T09:22:54.557Z,94.20
2023-04-20T09:25:46.423Z,81.00
2023-04-20T09:28:40.590Z,89.40
2023-04-20T09:31:29.446Z,91.00
2023-04-20T09:34:21.455Z,92.70
2023-04-20T09:37:11.148Z,87.50
2023-04-20T09:40:01.797Z,81.70
2023-04-20T09:42:51.138Z,83.30
2023-04-20T09:45:40.988Z,80.40
2023-04-20T09:48:31.934Z,81.10
2023-04-20T09:51:22.912Z,85.00
2023-04-20T09:54:12.814Z,82.70
2023-04-20T09:57:01.851Z,85.30
2023-04-20T09:59:54.775Z,81.90
2023-04-20T10:02:47.278Z,79.40
2023-04-20T10:05:37.197Z,71.60
2023-04-20T10:08:27.262Z,64.50
2023-04-20T10:11:37.115Z,66.20
2023-04-20T10:14:33.744Z,62.00
2023-04-20T10:17:31.700Z,61.40
2023-04-20T10:20:21.870Z,60.90
2023-04-20T10:23:14.488Z,65.00
2023-04-20T10:26:04.654Z,54.50
2023-04-20T10:28:53.336Z,44.40
2023-04-20T10:31:42.770Z,46.90
2023-04-20T10:34:32.481Z,40.20
2023-04-20T10:37:21.389Z,46.90
2023-04-20T10:40:11.236Z,46.90
2023-04-20T10:43:01.404Z,34.80
2023-04-20T10:45:50.821Z,27.60
2023-04-20T10:48:39.502Z,17.40
2023-04-20T10:51:28.720Z,13.40
2023-04-20T10:54:18.509Z,15.90
2023-04-20T10:57:08.312Z,20.00
2023-04-20T10:59:58.373Z,26.60
2023-04-20T11:02:51.211Z,19.50
2023-04-20T11:05:40.081Z,21.00
2023-04-20T11:08:39.893Z,30.00
2023-04-20T11:11:29.650Z,24.10
2023-04-20T11:14:18.327Z,27.40
2023-04-20T11:17:08.428Z,18.60
2023-04-20T11:20:06.816Z,22.80
2023-04-20T11:22:59.848Z,14.30
2023-04-20T11:25:53.490Z,6.40
2023-04-20T11:28:55.542Z,4.70
2023-04-20T11:31:51.854Z,1.00
2023-04-20T11:34:42.526Z,1.00
2023-04-20T11:37:32.563Z,1.00
2023-04-20T11:40:21.395Z,6.00
2023-04-20T11:43:10.002Z,10.10
2023-04-20T11:45:59.209Z,13.20
2023-04-20T11:48:49.171Z,13.60
2023-04-20T11:51:39.320Z,11.70
2023-04-20T11:54:29.988Z,11.50
2023-04-20T11:57:18.590Z,10.40
2023-04-20T12:00:09.158Z,8.40
2023-04-20T12:02:58.090Z,5.50
2023-04-20T12:05:46.975Z,6.70
2023-04-20T12:08:37.275Z,8.60
2023-04-20T12:11:26.259Z,13.70
2023-04-20T12:14:14.864Z,16.50
2023-04-20T12:17:04.519Z,18.70
2023-04-20T12:19:53.178Z,20.90
2023-04-20T12:22:42.112Z,29.10
2023-04-20T12:25:32.413Z,24.20
2023-04-20T12:28:21.100Z,19.80
2023-04-20T12:31:09.709Z,18.20
2023-04-20T12:33:58.419Z,16.10
2023-04-20T12:36:47.013Z,16.70
2023-04-20T12:39:35.660Z,17.10
2023-04-20T12:42:26.342Z,23.80
2023-04-20T12:45:14.935Z,34.30
2023-04-20T12:48:03.568Z,40.20
2023-04-20T12:50:52.291Z,35.00
2023-04-20T12:53:41.355Z,37.00
2023-04-20T12:56:30.030Z,44.50
2023-04-20T12:59:20.028Z,56.20
2023-04-20T13:02:08.671Z,67.70
2023-04-20T13:04:57.405Z,71.50
2023-04-20T13:07:46.434Z,75.10
2023-04-20T13:10:35.177Z,81.70
2023-04-20T13:13:23.794Z,70.90
2023-04-20T13:16:14.435Z,55.50
2023-04-20T13:19:03.115Z,55.30
2023-04-20T13:21:51.727Z,57.10
2023-04-20T13:24:40.380Z,62.80
2023-04-20T13:27:29.106Z,65.20
2023-04-20T13:30:17.920Z,51.60
2023-04-20T13:33:08.160Z,43.10
2023-04-20T13:35:57.051Z,37.10
2023-04-20T13:38:46.784Z,23.70
2023-04-20T13:41:35.523Z,16.30
2023-04-20T13:44:24.165Z,2.10
2023-04-20T13:47:12.843Z,1.00
2023-04-20T13:50:03.792Z,1.00
2023-04-20T13:52:52.360Z,1.00
2023-04-20T13:55:41.380Z,1.00
2023-04-20T13:58:30.138Z,1.00
2023-04-20T14:01:18.905Z,1.00
2023-04-20T14:04:07.886Z,1.00
2023-04-20T14:06:58.006Z,1.00
2023-04-20T14:09:46.709Z,1.00
2023-04-20T14:12:36.013Z,1.00
2023-04-20T14:15:25.094Z,1.00
2023-04-20T14:18:13.855Z,1.00
2023-04-20T14:21:03.841Z,1.00
2023-04-20T14:23:55.205Z,1.00
2023-04-20T14:26:44.016Z,1.00
2023-04-20T14:29:32.847Z,1.00
2023-04-20T14:32:21.570Z,2.00
2023-04-20T14:35:10.868Z,4.60
2023-04-20T14:37:59.475Z,3.00
2023-04-20T14:40:51.064Z,5.30
2023-04-20T14:43:39.684Z,2.10
2023-04-20T14:46:28.378Z,8.20
2023-04-20T14:49:17.034Z,20.10
2023-04-20T14:52:05.783Z,27.90
2023-04-20T14:54:54.427Z,47.60
2023-04-20T14:57:44.429Z,52.10
2023-04-20T15:00:33.227Z,60.80
2023-04-20T15:03:22.248Z,55.20
2023-04-20T15:06:11.571Z,52.20
2023-04-20T15:09:00.163Z,48.50
2023-04-20T15:11:48.769Z,37.10
2023-04-20T15:14:38.933Z,31.90
2023-04-20T15:17:27.547Z,26.70
2023-04-20T15:20:16.635Z,29.00
2023-04-20T15:23:05.988Z,24.50
2023-04-20T15:25:54.710Z,9.00
2023-04-20T15:28:43.301Z,9.60
2023-04-20T15:31:33.546Z,9.50
2023-04-20T15:34:22.487Z,7.30
2023-04-20T15:37:11.250Z,8.70
2023-04-20T15:40:00.609Z,9.80
2023-04-20T15:42:49.577Z,11.90
2023-04-20T15:45:38.211Z,16.70
2023-04-20T15:48:28.714Z,18.60
2023-04-20T15:51:17.773Z,21.60
2023-04-20T15:54:07.384Z,27.70
2023-04-20T15:56:56.038Z,26.80
2023-04-20T15:59:44.627Z,28.20
2023-04-20T16:02:33.378Z,32.00
2023-04-20T16:05:24.224Z,28.00
2023-04-20T16:08:13.262Z,26.70
2023-04-20T16:11:01.942Z,29.40
2023-04-20T16:13:50.767Z,29.60
2023-04-20T16:16:39.417Z,36.20
2023-04-20T16:19:28.112Z,37.60
2023-04-20T16:22:18.222Z,40.40
2023-04-20T16:25:08.012Z,39.80
2023-04-20T16:27:56.838Z,39.70
2023-04-20T16:30:45.800Z,39.70
2023-04-20T16:33:35.761Z,44.60
2023-04-20T16:36:24.477Z,47.30
2023-04-20T16:39:14.653Z,48.30
2023-04-20T16:42:04.073Z,46.40
2023-04-20T16:44:52.675Z,51.80
2023-04-20T16:47:41.504Z,49.60
2023-04-20T16:50:30.200Z,53.20
2023-04-20T16:53:18.751Z,56.00
2023-04-20T16:56:11.316Z,58.60
2023-04-20T16:59:00.239Z,60.10
2023-04-20T17:01:50.376Z,61.70
2023-04-20T17:04:38.980Z,67.20
2023-04-20T17:07:29.303Z,70.50
2023-04-20T17:10:18.226Z,69.60
2023-04-20T17:13:08.454Z,71.80
2023-04-20T17:15:57.206Z,73.40
2023-04-20T17:18:45.789Z,75.60
2023-04-20T17:21:34.466Z,78.30
2023-04-20T17:24:23.034Z,82.30
2023-04-20T17:27:11.645Z,86.20
2023-04-20T17:30:02.207Z,86.30
2023-04-20T17:32:51.021Z,87.70
2023-04-20T17:35:40.020Z,88.70
2023-04-20T17:38:28.696Z,89.10
2023-04-20T17:41:17.411Z,89.50
2023-04-20T17:44:06.003Z,91.30
2023-04-20T17:46:55.960Z,92.40
2023-04-20T17:49:44.623Z,93.60
2023-04-20T17:52:33.309Z,94.30
2023-04-20T17:55:22.250Z,95.00
2023-04-20T17:58:11.192Z,95.00
2023-04-20T18:00:59.910Z,96.10
2023-04-20T18:03:50.839Z,96.40
2023-04-20T18:06:39.557Z,95.70
2023-04-20T18:09:28.172Z,96.10
2023-04-20T18:12:16.818Z,95.80
2023-04-20T18:15:08.203Z,95.40
2023-04-20T18:17:57.190Z,97.30
2023-04-20T18:20:47.259Z,97.60
2023-04-20T18:23:35.886Z,96.70
2023-04-20T18:26:25.547Z,95.90
2023-04-20T18:29:14.201Z,97.80
2023-04-20T18:32:03.074Z,98.00
2023-04-20T18:34:51.984Z,99.40
2023-04-20T18:37:42.060Z,99.90
2023-04-20T18:40:31.374Z,99.90
2023-04-20T18:43:20.020Z,99.90
2023-04-20T18:46:08.923Z,99.90
2023-04-20T18:48:57.489Z,99.90
2023-04-20T18:51:46.181Z,99.90
2023-04-20T18:54:38.464Z,99.90
2023-04-20T18:57:28.831Z,99.90
2023-04-20T19:00:17.904Z,99.90
2023-04-20T19:03:07.161Z,99.90
2023-04-20T19:05:56.087Z,99.90
2023-04-20T19:08:45.051Z,99.90
2023-04-20T19:11:35.084Z,99.90
2023-04-20T19:14:23.643Z,99.90
2023-04-20T19:17:12.263Z,99.90
2023-04-20T19:20:00.903Z,99.90
2023-04-20T19:22:49.546Z,99.90
2023-04-20T19:25:38.268Z,99.90
2023-04-20T19:28:28.317Z,99.90
2023-04-20T19:31:16.957Z,99.90
2023-04-20T19:34:06.022Z,99.90
2023-04-20T19:36:55.326Z,99.90
2023-04-20T19:39:43.901Z,99.90
2023-04-20T19:42:32.596Z,99.90
2023-04-20T19:45:23.653Z,99.90
2023-04-20T19:48:12.550Z,99.90
2023-04-20T19:51:03.499Z,99.90
2023-04-20T19:53:52.175Z,99.90
2023-04-20T19:56:40.863Z,99.90
2023-04-20T19:59:30.436Z,99.90
2023-04-20T20:02:20.678Z,99.90
2023-04-20T20:05:09.802Z,99.90
2023-04-20T20:07:58.436Z,99.90
2023-04-20T20:10:47.131Z,99.90
2023-04-20T20:13:35.859Z,99.90
2023-04-20T20:16:24.545Z,99.90
2023-04-20T20:19:14.940Z,99.90
2023-04-20T20:22:03.613Z,99.90
2023-04-20T20:24:54.566Z,99.90
2023-04-20T20:27:43.274Z,99.90
2023-04-20T20:30:32.254Z,99.90
2023-04-20T20:33:20.944Z,99.90
2023-04-20T20:36:11.073Z,99.90
2023-04-20T20:39:00.543Z,99.90
2023-04-20T20:41:51.484Z,99.90
2023-04-20T20:44:40.156Z,99.90
2023-04-20T20:47:30.893Z,99.90
2023-04-20T20:50:20.107Z,99.90
2023-04-20T20:53:10.245Z,99.90
2023-04-20T20:55:58.892Z,99.90
2023-04-20T20:58:47.542Z,99.90
2023-04-20T21:01:36.388Z,99.90
2023-04-20T21:04:25.217Z,99.90
2023-04-20T21:07:14.331Z,99.90
2023-04-20T21:10:05.193Z,99.90
2023-04-20T21:12:53.872Z,99.90
2023-04-20T21:15:42.721Z,99.90
2023-04-20T21:18:31.654Z,99.90
2023-04-20T21:21:20.373Z,99.90
2023-04-20T21:24:09.051Z,99.90
2023-04-20T21:26:59.358Z,99.90
2023-04-20T21:29:47.964Z,99.90
2023-04-20T21:32:36.667Z,99.90
2023-04-20T21:35:25.540Z,99.90
2023-04-20T21:38:14.260Z,99.90
2023-04-20T21:41:03.074Z,99.90
2023-04-20T21:43:54.834Z,99.90
2023-04-20T21:46:43.659Z,99.90
2023-04-20T21:49:32.340Z,99.90
2023-04-20T21:52:21.004Z,99.90
2023-04-20T21:55:10.391Z,99.90
2023-04-20T21:57:59.043Z,99.90
2023-04-20T22:00:50.869Z,99.90
2023-04-20T22:03:39.785Z,99.90
2023-04-20T22:06:28.753Z,99.90
2023-04-20T22:09:18.476Z,99.90
2023-04-20T22:12:09.095Z,99.90
2023-04-20T22:14:57.752Z,99.90
2023-04-20T22:17:47.853Z,99.90
2023-04-20T22:20:37.022Z,99.90
2023-04-20T22:23:25.721Z,99.90
2023-04-20T22:26:14.456Z,99.90
2023-04-20T22:29:03.129Z,99.90
2023-04-20T22:31:51.797Z,99.90
2023-04-20T22:34:42.466Z,99.90
2023-04-20T22:37:31.131Z,99.90
2023-04-20T22:40:19.768Z,99.90
2023-04-20T22:43:08.463Z,99.90
2023-04-20T22:45:56.998Z,99.90
2023-04-20T22:48:48.502Z,99.90
2023-04-20T22:51:38.672Z,99.90
2023-04-20T22:54:27.290Z,99.90
2023-04-20T22:57:16.190Z,99.90
2023-04-20T23:00:06.470Z,99.90
2023-04-20T23:02:55.302Z,99.90
2023-04-20T23:05:45.158Z,99.90
2023-04-20T23:08:35.287Z,99.90
2023-04-20T23:11:26.902Z,99.90
2023-04-20T23:14:15.697Z,99.90
2023-04-20T23:17:04.397Z,99.90
2023-04-20T23:19:53.036Z,99.90
2023-04-20T23:22:41.826Z,99.90
2023-04-20T23:25:31.955Z,99.90
2023-04-20T23:28:20.650Z,99.90
2023-04-20T23:31:09.291Z,99.90
2023-04-20T23:33:57.898Z,99.90
2023-04-20T23:36:46.614Z,99.90
2023-04-20T23:39:38.336Z,99.90
2023-04-20T23:42:28.416Z,99.90
2023-04-20T23:45:17.161Z,99.90
2023-04-20T23:48:06.370Z,99.90
2023-04-20T23:50:55.828Z,99.90
2023-04-20T23:53:44.563Z,99.90
2023-04-20T23:56:33.320Z,99.90
2023-04-20T23:59:23.435Z,99.90
